sensor_id;sensor_type;location;lat;lon;timestamp;P1;durP1;ratioP1;P2;durP2;ratioP2
81191;SDS011;70665;47.652;-2.730;2023-07-09T00:01:40;11.57;;;2.90;;
81191;SDS011;70665;47.652;-2.730;2023-07-09T00:04:08;14.45;;;3.15;;
81191;SDS011;70665;47.652;-2.730;2023-07-09T00:06:35;16.10;;;2.53;;
81191;SDS011;70665;47.652;-2.730;2023-07-09T00:09:00;13.88;;;2.92;;
81191;SDS011;70665;47.652;-2.730;2023-07-09T00:11:26;12.43;;;2.78;;
81191;SDS011;70665;47.652;-2.730;2023-07-09T00:13:52;9.80;;;2.78;;
81191;SDS011;70665;47.652;-2.730;2023-07-09T00:16:19;13.00;;;2.85;;
81191;SDS011;70665;47.652;-2.730;2023-07-09T00:18:48;12.82;;;3.10;;
81191;SDS011;70665;47.652;-2.730;2023-07-09T00:21:15;15.18;;;2.90;;
81191;SDS011;70665;47.652;-2.730;2023-07-09T00:23:45;9.05;;;2.75;;
81191;SDS011;70665;47.652;-2.730;2023-07-09T00:26:14;11.88;;;2.65;;
81191;SDS011;70665;47.652;-2.730;2023-07-09T00:28:43;11.27;;;2.75;;
81191;SDS011;70665;47.652;-2.730;2023-07-09T00:31:13;9.98;;;2.28;;
81191;SDS011;70665;47.652;-2.730;2023-07-09T00:33:41;9.65;;;2.53;;
81191;SDS011;70665;47.652;-2.730;2023-07-09T00:36:13;11.75;;;2.90;;
81191;SDS011;70665;47.652;-2.730;2023-07-09T00:38:40;11.50;;;3.08;;
81191;SDS011;70665;47.652;-2.730;2023-07-09T00:41:17;12.82;;;3.47;;
81191;SDS011;70665;47.652;-2.730;2023-07-09T00:43:45;15.85;;;3.05;;
81191;SDS011;70665;47.652;-2.730;2023-07-09T00:48:53;16.23;;;3.05;;
81191;SDS011;70665;47.652;-2.730;2023-07-09T00:51:24;13.25;;;2.97;;
81191;SDS011;70665;47.652;-2.730;2023-07-09T00:53:51;16.65;;;3.00;;
81191;SDS011;70665;47.652;-2.730;2023-07-09T00:56:30;12.25;;;3.05;;
81191;SDS011;70665;47.652;-2.730;2023-07-09T00:59:03;11.68;;;3.00;;
81191;SDS011;70665;47.652;-2.730;2023-07-09T01:01:32;22.45;;;3.15;;
81191;SDS011;70665;47.652;-2.730;2023-07-09T01:03:59;13.23;;;2.90;;
81191;SDS011;70665;47.652;-2.730;2023-07-09T01:06:50;12.73;;;3.20;;
81191;SDS011;70665;47.652;-2.730;2023-07-09T01:09:16;19.17;;;3.50;;
81191;SDS011;70665;47.652;-2.730;2023-07-09T01:11:43;10.23;;;2.60;;
81191;SDS011;70665;47.652;-2.730;2023-07-09T01:14:09;13.38;;;2.65;;
81191;SDS011;70665;47.652;-2.730;2023-07-09T01:16:37;13.98;;;3.05;;
81191;SDS011;70665;47.652;-2.730;2023-07-09T01:19:08;9.57;;;2.72;;
81191;SDS011;70665;47.652;-2.730;2023-07-09T01:21:34;12.15;;;3.03;;
81191;SDS011;70665;47.652;-2.730;2023-07-09T01:24:10;13.60;;;2.78;;
81191;SDS011;70665;47.652;-2.730;2023-07-09T01:26:39;12.02;;;3.42;;
81191;SDS011;70665;47.652;-2.730;2023-07-09T01:29:05;9.20;;;2.60;;
81191;SDS011;70665;47.652;-2.730;2023-07-09T01:31:31;10.77;;;3.35;;
81191;SDS011;70665;47.652;-2.730;2023-07-09T01:33:57;7.00;;;2.42;;
81191;SDS011;70665;47.652;-2.730;2023-07-09T01:36:23;11.23;;;2.85;;
81191;SDS011;70665;47.652;-2.730;2023-07-09T01:38:50;12.38;;;2.85;;
81191;SDS011;70665;47.652;-2.730;2023-07-09T01:41:16;10.23;;;2.70;;
81191;SDS011;70665;47.652;-2.730;2023-07-09T01:43:43;14.23;;;3.35;;
81191;SDS011;70665;47.652;-2.730;2023-07-09T01:46:10;11.18;;;2.80;;
81191;SDS011;70665;47.652;-2.730;2023-07-09T01:48:37;8.90;;;2.70;;
81191;SDS011;70665;47.652;-2.730;2023-07-09T01:51:09;11.50;;;3.10;;
81191;SDS011;70665;47.652;-2.730;2023-07-09T01:53:36;9.90;;;2.70;;
81191;SDS011;70665;47.652;-2.730;2023-07-09T01:56:04;8.80;;;2.83;;
81191;SDS011;70665;47.652;-2.730;2023-07-09T01:58:32;14.35;;;2.70;;
81191;SDS011;70665;47.652;-2.730;2023-07-09T02:00:58;12.10;;;2.83;;
81191;SDS011;70665;47.652;-2.730;2023-07-09T02:03:24;8.50;;;2.33;;
81191;SDS011;70665;47.652;-2.730;2023-07-09T02:05:53;10.25;;;2.45;;
81191;SDS011;70665;47.652;-2.730;2023-07-09T02:08:19;8.20;;;2.25;;
81191;SDS011;70665;47.652;-2.730;2023-07-09T02:10:48;11.38;;;2.47;;
81191;SDS011;70665;47.652;-2.730;2023-07-09T02:13:14;12.13;;;2.90;;
81191;SDS011;70665;47.652;-2.730;2023-07-09T02:15:39;7.15;;;2.47;;
81191;SDS011;70665;47.652;-2.730;2023-07-09T02:18:08;12.20;;;3.00;;
81191;SDS011;70665;47.652;-2.730;2023-07-09T02:20:34;14.23;;;2.70;;
81191;SDS011;70665;47.652;-2.730;2023-07-09T02:23:00;10.52;;;2.50;;
81191;SDS011;70665;47.652;-2.730;2023-07-09T02:25:26;9.55;;;2.78;;
81191;SDS011;70665;47.652;-2.730;2023-07-09T02:27:52;8.88;;;2.50;;
81191;SDS011;70665;47.652;-2.730;2023-07-09T02:30:17;12.07;;;2.80;;
81191;SDS011;70665;47.652;-2.730;2023-07-09T02:32:43;11.52;;;3.28;;
81191;SDS011;70665;47.652;-2.730;2023-07-09T02:35:09;11.55;;;2.90;;
81191;SDS011;70665;47.652;-2.730;2023-07-09T02:37:35;12.30;;;2.75;;
81191;SDS011;70665;47.652;-2.730;2023-07-09T02:40:00;10.98;;;2.72;;
81191;SDS011;70665;47.652;-2.730;2023-07-09T02:42:26;10.18;;;2.95;;
81191;SDS011;70665;47.652;-2.730;2023-07-09T02:44:52;13.15;;;3.20;;
81191;SDS011;70665;47.652;-2.730;2023-07-09T02:47:18;10.73;;;3.08;;
81191;SDS011;70665;47.652;-2.730;2023-07-09T02:49:44;10.52;;;3.15;;
81191;SDS011;70665;47.652;-2.730;2023-07-09T02:52:09;12.60;;;3.40;;
81191;SDS011;70665;47.652;-2.730;2023-07-09T02:54:35;10.13;;;2.55;;
81191;SDS011;70665;47.652;-2.730;2023-07-09T02:57:01;12.63;;;3.05;;
81191;SDS011;70665;47.652;-2.730;2023-07-09T02:59:27;10.45;;;2.83;;
81191;SDS011;70665;47.652;-2.730;2023-07-09T03:01:54;11.98;;;2.78;;
81191;SDS011;70665;47.652;-2.730;2023-07-09T03:04:20;10.05;;;2.83;;
81191;SDS011;70665;47.652;-2.730;2023-07-09T03:06:46;12.00;;;2.95;;
81191;SDS011;70665;47.652;-2.730;2023-07-09T03:09:12;17.30;;;3.05;;
81191;SDS011;70665;47.652;-2.730;2023-07-09T03:11:37;14.77;;;3.47;;
81191;SDS011;70665;47.652;-2.730;2023-07-09T03:14:03;9.13;;;3.03;;
81191;SDS011;70665;47.652;-2.730;2023-07-09T03:16:30;10.43;;;3.35;;
81191;SDS011;70665;47.652;-2.730;2023-07-09T03:18:57;16.80;;;3.15;;
81191;SDS011;70665;47.652;-2.730;2023-07-09T03:21:24;15.98;;;3.83;;
81191;SDS011;70665;47.652;-2.730;2023-07-09T03:23:51;11.48;;;3.00;;
81191;SDS011;70665;47.652;-2.730;2023-07-09T03:26:17;11.88;;;2.53;;
81191;SDS011;70665;47.652;-2.730;2023-07-09T03:28:43;12.48;;;2.92;;
81191;SDS011;70665;47.652;-2.730;2023-07-09T03:31:09;7.00;;;2.63;;
81191;SDS011;70665;47.652;-2.730;2023-07-09T03:33:35;13.77;;;3.17;;
81191;SDS011;70665;47.652;-2.730;2023-07-09T03:36:01;11.50;;;2.58;;
81191;SDS011;70665;47.652;-2.730;2023-07-09T03:38:29;14.80;;;2.88;;
81191;SDS011;70665;47.652;-2.730;2023-07-09T03:40:55;12.93;;;2.75;;
81191;SDS011;70665;47.652;-2.730;2023-07-09T03:43:21;13.30;;;3.10;;
81191;SDS011;70665;47.652;-2.730;2023-07-09T03:45:48;15.25;;;3.10;;
81191;SDS011;70665;47.652;-2.730;2023-07-09T03:48:14;13.95;;;2.85;;
81191;SDS011;70665;47.652;-2.730;2023-07-09T03:50:42;12.00;;;2.60;;
81191;SDS011;70665;47.652;-2.730;2023-07-09T03:53:09;13.02;;;2.90;;
81191;SDS011;70665;47.652;-2.730;2023-07-09T03:55:35;13.27;;;2.83;;
81191;SDS011;70665;47.652;-2.730;2023-07-09T03:58:00;7.85;;;2.42;;
81191;SDS011;70665;47.652;-2.730;2023-07-09T04:00:29;12.32;;;2.58;;
81191;SDS011;70665;47.652;-2.730;2023-07-09T04:02:56;14.48;;;2.88;;
81191;SDS011;70665;47.652;-2.730;2023-07-09T04:05:22;12.77;;;3.00;;
81191;SDS011;70665;47.652;-2.730;2023-07-09T04:07:49;9.15;;;2.60;;
81191;SDS011;70665;47.652;-2.730;2023-07-09T04:10:15;10.32;;;2.72;;
81191;SDS011;70665;47.652;-2.730;2023-07-09T04:12:41;9.75;;;2.92;;
81191;SDS011;70665;47.652;-2.730;2023-07-09T04:15:07;11.90;;;2.53;;
81191;SDS011;70665;47.652;-2.730;2023-07-09T04:17:33;9.93;;;2.50;;
81191;SDS011;70665;47.652;-2.730;2023-07-09T04:19:59;12.48;;;2.97;;
81191;SDS011;70665;47.652;-2.730;2023-07-09T04:22:25;9.35;;;2.40;;
81191;SDS011;70665;47.652;-2.730;2023-07-09T04:24:51;9.27;;;2.60;;
81191;SDS011;70665;47.652;-2.730;2023-07-09T04:27:17;8.63;;;3.30;;
81191;SDS011;70665;47.652;-2.730;2023-07-09T04:29:44;12.70;;;3.50;;
81191;SDS011;70665;47.652;-2.730;2023-07-09T04:32:13;10.40;;;3.15;;
81191;SDS011;70665;47.652;-2.730;2023-07-09T04:34:40;9.38;;;2.70;;
81191;SDS011;70665;47.652;-2.730;2023-07-09T04:37:06;6.72;;;2.40;;
81191;SDS011;70665;47.652;-2.730;2023-07-09T04:39:33;9.85;;;2.90;;
81191;SDS011;70665;47.652;-2.730;2023-07-09T04:41:59;9.18;;;2.47;;
81191;SDS011;70665;47.652;-2.730;2023-07-09T04:44:25;10.13;;;2.55;;
81191;SDS011;70665;47.652;-2.730;2023-07-09T04:46:51;11.45;;;2.83;;
81191;SDS011;70665;47.652;-2.730;2023-07-09T04:49:17;11.15;;;2.30;;
81191;SDS011;70665;47.652;-2.730;2023-07-09T04:51:42;8.88;;;2.60;;
81191;SDS011;70665;47.652;-2.730;2023-07-09T04:54:08;9.15;;;2.30;;
81191;SDS011;70665;47.652;-2.730;2023-07-09T04:56:34;7.97;;;2.30;;
81191;SDS011;70665;47.652;-2.730;2023-07-09T04:58:59;7.60;;;2.55;;
81191;SDS011;70665;47.652;-2.730;2023-07-09T05:01:25;11.57;;;2.53;;
81191;SDS011;70665;47.652;-2.730;2023-07-09T05:03:50;10.80;;;2.25;;
81191;SDS011;70665;47.652;-2.730;2023-07-09T05:06:16;10.75;;;2.30;;
81191;SDS011;70665;47.652;-2.730;2023-07-09T05:08:42;9.60;;;2.22;;
81191;SDS011;70665;47.652;-2.730;2023-07-09T05:11:08;9.35;;;2.20;;
81191;SDS011;70665;47.652;-2.730;2023-07-09T05:13:35;10.95;;;2.08;;
81191;SDS011;70665;47.652;-2.730;2023-07-09T05:16:01;7.70;;;1.98;;
81191;SDS011;70665;47.652;-2.730;2023-07-09T05:18:27;12.70;;;2.28;;
81191;SDS011;70665;47.652;-2.730;2023-07-09T05:20:52;6.13;;;2.00;;
81191;SDS011;70665;47.652;-2.730;2023-07-09T05:23:18;10.85;;;2.30;;
81191;SDS011;70665;47.652;-2.730;2023-07-09T05:25:44;10.77;;;2.17;;
81191;SDS011;70665;47.652;-2.730;2023-07-09T05:28:09;10.23;;;1.98;;
81191;SDS011;70665;47.652;-2.730;2023-07-09T05:30:36;7.55;;;2.28;;
81191;SDS011;70665;47.652;-2.730;2023-07-09T05:33:02;7.68;;;1.50;;
81191;SDS011;70665;47.652;-2.730;2023-07-09T05:35:27;7.43;;;1.92;;
81191;SDS011;70665;47.652;-2.730;2023-07-09T05:37:53;8.55;;;1.90;;
81191;SDS011;70665;47.652;-2.730;2023-07-09T05:40:19;8.80;;;2.78;;
81191;SDS011;70665;47.652;-2.730;2023-07-09T05:42:46;10.75;;;1.73;;
81191;SDS011;70665;47.652;-2.730;2023-07-09T05:45:12;13.48;;;1.80;;
81191;SDS011;70665;47.652;-2.730;2023-07-09T05:47:38;6.75;;;1.98;;
81191;SDS011;70665;47.652;-2.730;2023-07-09T05:50:04;7.93;;;2.05;;
81191;SDS011;70665;47.652;-2.730;2023-07-09T05:52:30;6.28;;;1.70;;
81191;SDS011;70665;47.652;-2.730;2023-07-09T05:54:56;11.13;;;1.90;;
81191;SDS011;70665;47.652;-2.730;2023-07-09T05:57:22;10.00;;;1.80;;
81191;SDS011;70665;47.652;-2.730;2023-07-09T05:59:47;8.60;;;2.22;;
81191;SDS011;70665;47.652;-2.730;2023-07-09T06:02:15;6.82;;;1.90;;
81191;SDS011;70665;47.652;-2.730;2023-07-09T06:04:42;6.13;;;1.95;;
81191;SDS011;70665;47.652;-2.730;2023-07-09T06:07:10;9.48;;;1.90;;
81191;SDS011;70665;47.652;-2.730;2023-07-09T06:09:37;11.20;;;2.28;;
81191;SDS011;70665;47.652;-2.730;2023-07-09T06:12:03;9.88;;;2.20;;
81191;SDS011;70665;47.652;-2.730;2023-07-09T06:14:30;12.63;;;2.70;;
81191;SDS011;70665;47.652;-2.730;2023-07-09T06:16:57;5.30;;;1.60;;
81191;SDS011;70665;47.652;-2.730;2023-07-09T06:19:23;12.38;;;2.50;;
81191;SDS011;70665;47.652;-2.730;2023-07-09T06:21:49;9.52;;;2.00;;
81191;SDS011;70665;47.652;-2.730;2023-07-09T06:24:14;12.38;;;2.38;;
81191;SDS011;70665;47.652;-2.730;2023-07-09T06:26:40;8.68;;;2.03;;
81191;SDS011;70665;47.652;-2.730;2023-07-09T06:29:06;9.30;;;2.17;;
81191;SDS011;70665;47.652;-2.730;2023-07-09T06:31:32;9.45;;;2.22;;
81191;SDS011;70665;47.652;-2.730;2023-07-09T06:33:57;5.43;;;2.03;;
81191;SDS011;70665;47.652;-2.730;2023-07-09T06:36:23;8.80;;;2.10;;
81191;SDS011;70665;47.652;-2.730;2023-07-09T06:38:49;8.18;;;2.42;;
81191;SDS011;70665;47.652;-2.730;2023-07-09T06:41:15;14.48;;;2.03;;
81191;SDS011;70665;47.652;-2.730;2023-07-09T06:43:41;10.30;;;2.42;;
81191;SDS011;70665;47.652;-2.730;2023-07-09T06:46:09;10.93;;;2.20;;
81191;SDS011;70665;47.652;-2.730;2023-07-09T06:48:36;10.13;;;2.22;;
81191;SDS011;70665;47.652;-2.730;2023-07-09T06:51:02;11.50;;;1.90;;
81191;SDS011;70665;47.652;-2.730;2023-07-09T06:53:28;8.07;;;1.60;;
81191;SDS011;70665;47.652;-2.730;2023-07-09T06:55:54;7.20;;;1.67;;
81191;SDS011;70665;47.652;-2.730;2023-07-09T06:58:23;8.85;;;1.65;;
81191;SDS011;70665;47.652;-2.730;2023-07-09T07:00:50;9.70;;;1.90;;
81191;SDS011;70665;47.652;-2.730;2023-07-09T07:03:20;6.82;;;1.80;;
81191;SDS011;70665;47.652;-2.730;2023-07-09T07:05:48;9.40;;;1.80;;
81191;SDS011;70665;47.652;-2.730;2023-07-09T07:08:16;6.88;;;1.90;;
81191;SDS011;70665;47.652;-2.730;2023-07-09T07:10:43;10.32;;;1.98;;
81191;SDS011;70665;47.652;-2.730;2023-07-09T07:13:11;6.93;;;1.90;;
81191;SDS011;70665;47.652;-2.730;2023-07-09T07:15:38;4.55;;;1.90;;
81191;SDS011;70665;47.652;-2.730;2023-07-09T07:18:04;9.35;;;2.28;;
81191;SDS011;70665;47.652;-2.730;2023-07-09T07:20:31;9.85;;;2.50;;
81191;SDS011;70665;47.652;-2.730;2023-07-09T07:22:57;6.90;;;1.60;;
81191;SDS011;70665;47.652;-2.730;2023-07-09T07:25:23;9.38;;;1.65;;
81191;SDS011;70665;47.652;-2.730;2023-07-09T07:27:49;10.55;;;2.03;;
81191;SDS011;70665;47.652;-2.730;2023-07-09T07:30:15;9.52;;;1.80;;
81191;SDS011;70665;47.652;-2.730;2023-07-09T07:32:43;7.03;;;2.13;;
81191;SDS011;70665;47.652;-2.730;2023-07-09T07:35:10;7.57;;;1.42;;
81191;SDS011;70665;47.652;-2.730;2023-07-09T07:37:36;7.30;;;1.90;;
81191;SDS011;70665;47.652;-2.730;2023-07-09T07:40:02;8.82;;;2.35;;
81191;SDS011;70665;47.652;-2.730;2023-07-09T07:42:29;6.82;;;1.70;;
81191;SDS011;70665;47.652;-2.730;2023-07-09T07:44:55;9.07;;;2.03;;
81191;SDS011;70665;47.652;-2.730;2023-07-09T07:47:21;6.85;;;1.52;;
81191;SDS011;70665;47.652;-2.730;2023-07-09T07:49:47;5.32;;;1.80;;
81191;SDS011;70665;47.652;-2.730;2023-07-09T07:52:12;7.78;;;1.98;;
81191;SDS011;70665;47.652;-2.730;2023-07-09T07:54:38;6.25;;;1.90;;
81191;SDS011;70665;47.652;-2.730;2023-07-09T07:57:04;7.95;;;1.58;;
81191;SDS011;70665;47.652;-2.730;2023-07-09T07:59:30;7.38;;;1.67;;
81191;SDS011;70665;47.652;-2.730;2023-07-09T08:01:59;4.47;;;1.55;;
81191;SDS011;70665;47.652;-2.730;2023-07-09T08:04:25;8.50;;;1.92;;
81191;SDS011;70665;47.652;-2.730;2023-07-09T08:06:51;6.15;;;1.80;;
81191;SDS011;70665;47.652;-2.730;2023-07-09T08:09:17;7.35;;;1.83;;
81191;SDS011;70665;47.652;-2.730;2023-07-09T08:11:43;8.98;;;1.92;;
81191;SDS011;70665;47.652;-2.730;2023-07-09T08:14:09;7.10;;;1.75;;
81191;SDS011;70665;47.652;-2.730;2023-07-09T08:16:35;6.60;;;1.90;;
81191;SDS011;70665;47.652;-2.730;2023-07-09T08:19:01;4.95;;;1.52;;
81191;SDS011;70665;47.652;-2.730;2023-07-09T08:21:26;7.20;;;1.95;;
81191;SDS011;70665;47.652;-2.730;2023-07-09T08:23:52;8.40;;;1.63;;
81191;SDS011;70665;47.652;-2.730;2023-07-09T08:26:18;11.32;;;2.28;;
81191;SDS011;70665;47.652;-2.730;2023-07-09T08:28:43;9.05;;;2.00;;
81191;SDS011;70665;47.652;-2.730;2023-07-09T08:31:09;7.53;;;1.80;;
81191;SDS011;70665;47.652;-2.730;2023-07-09T08:33:35;5.85;;;2.15;;
81191;SDS011;70665;47.652;-2.730;2023-07-09T08:36:01;8.25;;;1.52;;
81191;SDS011;70665;47.652;-2.730;2023-07-09T08:38:27;6.10;;;2.00;;
81191;SDS011;70665;47.652;-2.730;2023-07-09T08:41:00;11.15;;;2.13;;
81191;SDS011;70665;47.652;-2.730;2023-07-09T08:48:52;5.18;;;1.67;;
81191;SDS011;70665;47.652;-2.730;2023-07-09T08:51:26;11.18;;;2.22;;
81191;SDS011;70665;47.652;-2.730;2023-07-09T08:53:58;9.35;;;1.90;;
81191;SDS011;70665;47.652;-2.730;2023-07-09T08:56:25;8.18;;;2.05;;
81191;SDS011;70665;47.652;-2.730;2023-07-09T08:58:53;8.88;;;2.05;;
81191;SDS011;70665;47.652;-2.730;2023-07-09T09:01:24;7.00;;;1.80;;
81191;SDS011;70665;47.652;-2.730;2023-07-09T09:03:59;9.35;;;2.00;;
81191;SDS011;70665;47.652;-2.730;2023-07-09T09:06:38;7.43;;;1.70;;
81191;SDS011;70665;47.652;-2.730;2023-07-09T09:09:15;8.70;;;1.77;;
81191;SDS011;70665;47.652;-2.730;2023-07-09T09:11:45;8.75;;;1.88;;
81191;SDS011;70665;47.652;-2.730;2023-07-09T09:14:30;8.73;;;2.15;;
81191;SDS011;70665;47.652;-2.730;2023-07-09T09:16:59;8.32;;;1.67;;
81191;SDS011;70665;47.652;-2.730;2023-07-09T09:21:56;10.32;;;2.05;;
81191;SDS011;70665;47.652;-2.730;2023-07-09T09:25:12;12.05;;;2.17;;
81191;SDS011;70665;47.652;-2.730;2023-07-09T09:27:36;8.57;;;1.77;;
81191;SDS011;70665;47.652;-2.730;2023-07-09T09:30:03;12.13;;;2.13;;
81191;SDS011;70665;47.652;-2.730;2023-07-09T09:32:31;10.73;;;2.10;;
81191;SDS011;70665;47.652;-2.730;2023-07-09T09:35:11;11.13;;;2.50;;
81191;SDS011;70665;47.652;-2.730;2023-07-09T09:37:38;8.32;;;1.90;;
81191;SDS011;70665;47.652;-2.730;2023-07-09T09:40:04;9.00;;;1.70;;
81191;SDS011;70665;47.652;-2.730;2023-07-09T09:42:33;12.65;;;1.80;;
81191;SDS011;70665;47.652;-2.730;2023-07-09T09:44:59;10.55;;;2.22;;
81191;SDS011;70665;47.652;-2.730;2023-07-09T09:47:27;8.75;;;1.85;;
81191;SDS011;70665;47.652;-2.730;2023-07-09T09:49:55;13.15;;;2.85;;
81191;SDS011;70665;47.652;-2.730;2023-07-09T09:52:24;8.57;;;1.98;;
81191;SDS011;70665;47.652;-2.730;2023-07-09T09:55:03;9.50;;;2.10;;
81191;SDS011;70665;47.652;-2.730;2023-07-09T09:57:36;8.00;;;1.98;;
81191;SDS011;70665;47.652;-2.730;2023-07-09T10:00:02;10.57;;;2.10;;
81191;SDS011;70665;47.652;-2.730;2023-07-09T10:02:37;13.05;;;2.90;;
81191;SDS011;70665;47.652;-2.730;2023-07-09T10:05:13;9.93;;;2.15;;
81191;SDS011;70665;47.652;-2.730;2023-07-09T10:07:45;13.70;;;2.53;;
81191;SDS011;70665;47.652;-2.730;2023-07-09T10:10:20;10.88;;;2.15;;
81191;SDS011;70665;47.652;-2.730;2023-07-09T10:12:57;11.88;;;2.25;;
81191;SDS011;70665;47.652;-2.730;2023-07-09T10:15:40;10.60;;;2.20;;
81191;SDS011;70665;47.652;-2.730;2023-07-09T10:18:25;9.45;;;1.75;;
81191;SDS011;70665;47.652;-2.730;2023-07-09T10:21:15;11.02;;;2.28;;
81191;SDS011;70665;47.652;-2.730;2023-07-09T10:26:39;11.00;;;1.88;;
81191;SDS011;70665;47.652;-2.730;2023-07-09T10:35:15;11.90;;;2.33;;
81191;SDS011;70665;47.652;-2.730;2023-07-09T10:38:07;9.32;;;2.25;;
81191;SDS011;70665;47.652;-2.730;2023-07-09T10:40:46;10.60;;;1.88;;
81191;SDS011;70665;47.652;-2.730;2023-07-09T10:43:32;10.30;;;1.77;;
81191;SDS011;70665;47.652;-2.730;2023-07-09T10:46:26;9.60;;;1.83;;
81191;SDS011;70665;47.652;-2.730;2023-07-09T10:48:55;7.32;;;1.73;;
81191;SDS011;70665;47.652;-2.730;2023-07-09T10:56:41;8.50;;;2.00;;
81191;SDS011;70665;47.652;-2.730;2023-07-09T11:04:43;8.43;;;2.58;;
81191;SDS011;70665;47.652;-2.730;2023-07-09T11:07:23;11.93;;;2.20;;
81191;SDS011;70665;47.652;-2.730;2023-07-09T11:12:50;16.02;;;2.40;;
81191;SDS011;70665;47.652;-2.730;2023-07-09T11:15:36;7.57;;;1.80;;
81191;SDS011;70665;47.652;-2.730;2023-07-09T11:18:05;10.40;;;2.05;;
81191;SDS011;70665;47.652;-2.730;2023-07-09T11:20:36;8.48;;;1.85;;
81191;SDS011;70665;47.652;-2.730;2023-07-09T11:23:17;9.18;;;2.10;;
81191;SDS011;70665;47.652;-2.730;2023-07-09T11:25:49;9.35;;;2.10;;
81191;SDS011;70665;47.652;-2.730;2023-07-09T11:28:36;8.65;;;1.88;;
81191;SDS011;70665;47.652;-2.730;2023-07-09T11:31:07;9.20;;;1.85;;
81191;SDS011;70665;47.652;-2.730;2023-07-09T11:33:45;11.55;;;2.35;;
81191;SDS011;70665;47.652;-2.730;2023-07-09T11:36:13;11.52;;;2.05;;
81191;SDS011;70665;47.652;-2.730;2023-07-09T11:38:48;9.40;;;1.50;;
81191;SDS011;70665;47.652;-2.730;2023-07-09T11:43:52;7.95;;;2.55;;
81191;SDS011;70665;47.652;-2.730;2023-07-09T11:46:18;10.52;;;2.28;;
81191;SDS011;70665;47.652;-2.730;2023-07-09T11:48:49;8.30;;;1.80;;
81191;SDS011;70665;47.652;-2.730;2023-07-09T11:51:23;7.15;;;1.80;;
81191;SDS011;70665;47.652;-2.730;2023-07-09T11:53:57;10.35;;;1.92;;
81191;SDS011;70665;47.652;-2.730;2023-07-09T11:56:26;9.70;;;1.70;;
81191;SDS011;70665;47.652;-2.730;2023-07-09T11:58:53;9.35;;;1.75;;
81191;SDS011;70665;47.652;-2.730;2023-07-09T12:01:25;7.43;;;1.75;;
81191;SDS011;70665;47.652;-2.730;2023-07-09T12:03:59;8.45;;;1.92;;
81191;SDS011;70665;47.652;-2.730;2023-07-09T12:06:29;13.07;;;2.17;;
81191;SDS011;70665;47.652;-2.730;2023-07-09T12:08:57;7.78;;;1.77;;
81191;SDS011;70665;47.652;-2.730;2023-07-09T12:11:24;14.15;;;2.63;;
81191;SDS011;70665;47.652;-2.730;2023-07-09T12:13:54;8.10;;;1.60;;
81191;SDS011;70665;47.652;-2.730;2023-07-09T12:16:38;14.38;;;1.80;;
81191;SDS011;70665;47.652;-2.730;2023-07-09T12:19:05;9.27;;;1.83;;
81191;SDS011;70665;47.652;-2.730;2023-07-09T12:21:33;14.38;;;2.20;;
81191;SDS011;70665;47.652;-2.730;2023-07-09T12:24:02;13.18;;;2.50;;
81191;SDS011;70665;47.652;-2.730;2023-07-09T12:26:54;13.20;;;2.17;;
81191;SDS011;70665;47.652;-2.730;2023-07-09T12:29:25;9.82;;;2.33;;
81191;SDS011;70665;47.652;-2.730;2023-07-09T12:31:52;6.70;;;1.70;;
81191;SDS011;70665;47.652;-2.730;2023-07-09T12:34:17;8.55;;;2.20;;
81191;SDS011;70665;47.652;-2.730;2023-07-09T12:36:46;10.30;;;2.03;;
81191;SDS011;70665;47.652;-2.730;2023-07-09T12:39:15;9.15;;;2.15;;
81191;SDS011;70665;47.652;-2.730;2023-07-09T12:41:48;15.15;;;2.25;;
81191;SDS011;70665;47.652;-2.730;2023-07-09T12:44:15;14.32;;;2.72;;
81191;SDS011;70665;47.652;-2.730;2023-07-09T12:46:46;10.55;;;2.05;;
81191;SDS011;70665;47.652;-2.730;2023-07-09T12:51:49;9.55;;;2.03;;
81191;SDS011;70665;47.652;-2.730;2023-07-09T12:54:16;11.43;;;2.17;;
81191;SDS011;70665;47.652;-2.730;2023-07-09T12:56:43;11.80;;;2.67;;
81191;SDS011;70665;47.652;-2.730;2023-07-09T12:59:20;10.35;;;1.77;;
81191;SDS011;70665;47.652;-2.730;2023-07-09T13:02:22;11.30;;;2.50;;
81191;SDS011;70665;47.652;-2.730;2023-07-09T13:04:44;10.15;;;2.03;;
81191;SDS011;70665;47.652;-2.730;2023-07-09T13:07:45;11.32;;;2.25;;
81191;SDS011;70665;47.652;-2.730;2023-07-09T13:10:25;12.35;;;2.60;;
81191;SDS011;70665;47.652;-2.730;2023-07-09T13:12:52;10.75;;;2.30;;
81191;SDS011;70665;47.652;-2.730;2023-07-09T13:17:45;7.57;;;2.35;;
81191;SDS011;70665;47.652;-2.730;2023-07-09T13:20:10;12.52;;;2.53;;
81191;SDS011;70665;47.652;-2.730;2023-07-09T13:22:36;12.35;;;2.50;;
81191;SDS011;70665;47.652;-2.730;2023-07-09T13:25:02;10.30;;;2.17;;
81191;SDS011;70665;47.652;-2.730;2023-07-09T13:27:28;10.85;;;2.00;;
81191;SDS011;70665;47.652;-2.730;2023-07-09T13:29:53;10.65;;;2.15;;
81191;SDS011;70665;47.652;-2.730;2023-07-09T13:32:19;14.00;;;2.20;;
81191;SDS011;70665;47.652;-2.730;2023-07-09T13:34:45;10.20;;;1.83;;
81191;SDS011;70665;47.652;-2.730;2023-07-09T13:37:14;11.52;;;2.15;;
81191;SDS011;70665;47.652;-2.730;2023-07-09T13:39:41;11.82;;;1.90;;
81191;SDS011;70665;47.652;-2.730;2023-07-09T13:42:10;13.00;;;2.08;;
81191;SDS011;70665;47.652;-2.730;2023-07-09T13:44:38;10.50;;;2.38;;
81191;SDS011;70665;47.652;-2.730;2023-07-09T13:47:05;11.68;;;1.77;;
81191;SDS011;70665;47.652;-2.730;2023-07-09T13:49:33;9.45;;;2.10;;
81191;SDS011;70665;47.652;-2.730;2023-07-09T13:52:00;12.02;;;2.45;;
81191;SDS011;70665;47.652;-2.730;2023-07-09T13:54:27;12.25;;;1.83;;
81191;SDS011;70665;47.652;-2.730;2023-07-09T13:57:00;9.40;;;2.10;;
81191;SDS011;70665;47.652;-2.730;2023-07-09T13:59:27;9.35;;;2.15;;
81191;SDS011;70665;47.652;-2.730;2023-07-09T14:01:54;11.55;;;2.03;;
81191;SDS011;70665;47.652;-2.730;2023-07-09T14:04:21;12.20;;;2.58;;
81191;SDS011;70665;47.652;-2.730;2023-07-09T14:06:48;12.85;;;2.67;;
81191;SDS011;70665;47.652;-2.730;2023-07-09T14:09:14;10.13;;;1.92;;
81191;SDS011;70665;47.652;-2.730;2023-07-09T14:11:42;8.00;;;2.20;;
81191;SDS011;70665;47.652;-2.730;2023-07-09T14:14:51;13.88;;;2.40;;
81191;SDS011;70665;47.652;-2.730;2023-07-09T14:16:58;10.45;;;2.10;;
81191;SDS011;70665;47.652;-2.730;2023-07-09T14:19:24;9.85;;;2.47;;
81191;SDS011;70665;47.652;-2.730;2023-07-09T14:21:51;11.38;;;1.98;;
81191;SDS011;70665;47.652;-2.730;2023-07-09T14:24:24;11.75;;;2.03;;
81191;SDS011;70665;47.652;-2.730;2023-07-09T14:26:52;9.63;;;2.35;;
81191;SDS011;70665;47.652;-2.730;2023-07-09T14:29:21;16.50;;;2.63;;
81191;SDS011;70665;47.652;-2.730;2023-07-09T14:31:47;11.77;;;2.00;;
81191;SDS011;70665;47.652;-2.730;2023-07-09T14:36:42;10.60;;;2.03;;
81191;SDS011;70665;47.652;-2.730;2023-07-09T14:39:11;8.32;;;1.70;;
81191;SDS011;70665;47.652;-2.730;2023-07-09T14:41:37;9.00;;;2.10;;
81191;SDS011;70665;47.652;-2.730;2023-07-09T14:44:05;11.13;;;2.20;;
81191;SDS011;70665;47.652;-2.730;2023-07-09T14:46:51;11.40;;;2.88;;
81191;SDS011;70665;47.652;-2.730;2023-07-09T14:49:19;11.98;;;2.05;;
81191;SDS011;70665;47.652;-2.730;2023-07-09T14:51:45;9.77;;;2.67;;
81191;SDS011;70665;47.652;-2.730;2023-07-09T14:54:19;14.13;;;1.83;;
81191;SDS011;70665;47.652;-2.730;2023-07-09T14:59:16;9.40;;;1.70;;
81191;SDS011;70665;47.652;-2.730;2023-07-09T15:01:43;9.13;;;1.52;;
81191;SDS011;70665;47.652;-2.730;2023-07-09T15:06:50;8.65;;;1.75;;
81191;SDS011;70665;47.652;-2.730;2023-07-09T15:09:27;8.25;;;1.60;;
81191;SDS011;70665;47.652;-2.730;2023-07-09T15:12:02;11.70;;;2.00;;
81191;SDS011;70665;47.652;-2.730;2023-07-09T15:14:29;8.38;;;1.70;;
81191;SDS011;70665;47.652;-2.730;2023-07-09T15:16:56;5.32;;;1.60;;
81191;SDS011;70665;47.652;-2.730;2023-07-09T15:19:22;8.77;;;1.90;;
81191;SDS011;70665;47.652;-2.730;2023-07-09T15:21:48;11.07;;;1.77;;
81191;SDS011;70665;47.652;-2.730;2023-07-09T15:24:22;12.93;;;2.72;;
81191;SDS011;70665;47.652;-2.730;2023-07-09T15:26:51;7.45;;;2.00;;